createdAt,value
2022-12-04T00:01:44.674Z,0.70
2022-12-04T00:04:12.859Z,1.00
2022-12-04T00:06:42.918Z,0.88
2022-12-04T00:09:11.125Z,1.10
2022-12-04T00:11:39.802Z,0.93
2022-12-04T00:14:08.782Z,1.10
2022-12-04T00:16:37.071Z,0.95
2022-12-04T00:19:06.000Z,1.00
2022-12-04T00:21:34.293Z,0.88
2022-12-04T00:24:02.576Z,1.02
2022-12-04T00:26:31.785Z,1.20
2022-12-04T00:29:00.395Z,1.40
2022-12-04T00:31:31.081Z,1.20
2022-12-04T00:34:00.622Z,0.93
2022-12-04T00:36:30.077Z,1.20
2022-12-04T00:39:00.618Z,1.27
2022-12-04T00:41:31.812Z,1.48
2022-12-04T00:44:01.498Z,1.00
2022-12-04T00:46:30.100Z,1.00
2022-12-04T00:49:01.814Z,0.85
2022-12-04T00:51:31.200Z,0.70
2022-12-04T00:53:59.631Z,1.08
2022-12-04T00:56:29.545Z,0.80
2022-12-04T00:58:59.922Z,0.90
2022-12-04T01:01:46.798Z,1.13
2022-12-04T01:04:15.056Z,1.00
2022-12-04T01:06:43.222Z,0.80
2022-12-04T01:09:11.991Z,1.08
2022-12-04T01:11:40.371Z,1.00
2022-12-04T01:14:09.884Z,1.13
2022-12-04T01:16:40.151Z,1.42
2022-12-04T01:19:10.925Z,1.48
2022-12-04T01:21:39.968Z,1.90
2022-12-04T01:24:08.919Z,1.55
2022-12-04T01:26:40.861Z,2.05
2022-12-04T01:29:09.245Z,2.03
2022-12-04T01:31:37.644Z,1.90
2022-12-04T01:34:05.796Z,2.10
2022-12-04T01:36:34.015Z,1.75
2022-12-04T01:39:02.217Z,2.10
2022-12-04T01:41:32.154Z,1.85
2022-12-04T01:44:18.122Z,2.28
2022-12-04T01:47:05.355Z,2.00
2022-12-04T01:49:48.757Z,2.50
2022-12-04T01:52:21.644Z,2.00
2022-12-04T01:55:00.351Z,2.22
2022-12-04T01:57:31.818Z,2.20
2022-12-04T02:00:10.970Z,2.60
2022-12-04T02:02:42.587Z,2.33
2022-12-04T02:05:14.233Z,2.00
2022-12-04T02:07:45.065Z,2.25
2022-12-04T02:10:14.745Z,2.58
2022-12-04T02:13:04.675Z,2.33
2022-12-04T02:15:39.210Z,1.83
2022-12-04T02:18:41.124Z,2.53
2022-12-04T02:21:20.110Z,2.58
2022-12-04T02:23:54.011Z,2.63
2022-12-04T02:26:38.066Z,2.50
2022-12-04T02:29:30.981Z,2.22
2022-12-04T02:32:27.370Z,2.40
2022-12-04T02:34:58.784Z,2.70
2022-12-04T02:37:50.535Z,2.83
2022-12-04T02:40:33.847Z,2.33
2022-12-04T02:43:25.072Z,2.60
2022-12-04T02:46:14.984Z,2.50
2022-12-04T02:48:47.001Z,2.80
2022-12-04T02:51:19.539Z,2.80
2022-12-04T02:53:53.508Z,2.43
2022-12-04T02:56:28.935Z,3.00
2022-12-04T02:59:02.649Z,2.85
2022-12-04T03:01:38.057Z,2.35
2022-12-04T03:04:18.891Z,3.13
2022-12-04T03:06:57.316Z,2.45
2022-12-04T03:09:40.431Z,2.58
2022-12-04T03:12:20.438Z,2.30
2022-12-04T03:15:17.782Z,2.40
2022-12-04T03:17:56.129Z,1.90
2022-12-04T03:20:25.128Z,2.13
2022-12-04T03:23:02.098Z,2.40
2022-12-04T03:25:37.709Z,2.15
2022-12-04T03:28:15.511Z,2.15
2022-12-04T03:30:50.421Z,2.00
2022-12-04T03:33:23.586Z,1.70
2022-12-04T03:35:55.926Z,1.88
2022-12-04T03:38:33.284Z,1.98
2022-12-04T03:41:14.401Z,1.67
2022-12-04T03:44:10.344Z,1.70
2022-12-04T03:46:55.630Z,1.38
2022-12-04T03:49:52.387Z,1.80
2022-12-04T03:52:31.933Z,1.60
2022-12-04T03:55:11.151Z,1.63
2022-12-04T03:57:44.649Z,1.63
2022-12-04T04:00:17.888Z,1.60
2022-12-04T04:02:54.564Z,1.33
2022-12-04T04:05:24.287Z,1.38
2022-12-04T04:07:56.724Z,1.58
2022-12-04T04:10:26.609Z,1.47
2022-12-04T04:13:23.735Z,1.70
2022-12-04T04:16:14.029Z,1.67
2022-12-04T04:19:02.782Z,1.45
2022-12-04T04:21:54.795Z,1.48
2022-12-04T04:24:36.444Z,1.52
2022-12-04T04:27:05.125Z,1.75
2022-12-04T04:29:33.777Z,1.38
2022-12-04T04:32:45.568Z,1.35
2022-12-04T04:35:19.907Z,1.55
2022-12-04T04:38:15.562Z,1.17
2022-12-04T04:41:06.785Z,1.60
2022-12-04T04:46:18.853Z,1.52
2022-12-04T04:48:53.413Z,1.55
2022-12-04T04:51:22.442Z,1.52
2022-12-04T04:53:53.913Z,1.70
2022-12-04T04:56:23.007Z,1.58
2022-12-04T04:58:51.258Z,1.70
2022-12-04T05:01:24.521Z,1.92
2022-12-04T05:06:21.139Z,1.20
2022-12-04T05:08:49.425Z,1.70
2022-12-04T05:11:18.132Z,1.55
2022-12-04T05:13:46.461Z,1.60
2022-12-04T05:16:16.791Z,1.50
2022-12-04T05:19:03.829Z,1.40
2022-12-04T05:21:33.034Z,1.30
2022-12-04T05:24:01.457Z,1.33
2022-12-04T05:26:29.677Z,1.52
2022-12-04T05:29:00.858Z,1.25
2022-12-04T05:31:29.038Z,1.17
2022-12-04T05:33:57.649Z,1.15
2022-12-04T05:36:25.839Z,1.15
2022-12-04T05:38:54.110Z,1.10
2022-12-04T05:41:25.108Z,1.05
2022-12-04T05:43:53.333Z,1.17
2022-12-04T05:46:21.600Z,1.00
2022-12-04T05:48:49.877Z,1.20
2022-12-04T05:51:18.100Z,1.30
2022-12-04T05:53:46.343Z,1.20
2022-12-04T05:56:14.544Z,1.10
2022-12-04T05:58:42.724Z,1.20
2022-12-04T06:01:20.629Z,1.30
2022-12-04T06:03:48.844Z,1.02
2022-12-04T06:06:22.547Z,1.17
2022-12-04T06:08:53.102Z,1.27
2022-12-04T06:11:25.031Z,1.23
2022-12-04T06:13:54.822Z,1.30
2022-12-04T06:16:25.592Z,1.20
2022-12-04T06:18:56.136Z,1.35
2022-12-04T06:21:27.921Z,1.30
2022-12-04T06:23:57.403Z,1.63
2022-12-04T06:26:26.056Z,1.15
2022-12-04T06:28:55.346Z,1.58
2022-12-04T06:31:24.943Z,1.17
2022-12-04T06:34:00.241Z,1.60
2022-12-04T06:36:28.604Z,1.17
2022-12-04T06:38:59.314Z,1.42
2022-12-04T06:41:29.004Z,1.73
2022-12-04T06:43:57.901Z,1.80
2022-12-04T06:46:29.828Z,1.30
2022-12-04T06:48:59.784Z,1.17
2022-12-04T06:51:31.035Z,1.27
2022-12-04T06:54:00.070Z,1.23
2022-12-04T06:56:31.270Z,1.23
2022-12-04T06:59:01.755Z,1.50
2022-12-04T07:01:31.834Z,1.10
2022-12-04T07:04:03.436Z,1.10
2022-12-04T07:06:37.737Z,0.95
2022-12-04T07:09:15.705Z,1.13
2022-12-04T07:11:45.262Z,1.10
2022-12-04T07:14:14.704Z,1.10
2022-12-04T07:16:43.133Z,2.08
2022-12-04T07:19:13.652Z,3.35
2022-12-04T07:21:42.605Z,4.20
2022-12-04T07:24:16.214Z,3.97
2022-12-04T07:26:45.154Z,3.58
2022-12-04T07:29:13.606Z,3.50
2022-12-04T07:31:42.265Z,3.05
2022-12-04T07:34:10.764Z,3.13
2022-12-04T07:36:40.831Z,3.10
2022-12-04T07:39:09.144Z,2.72
2022-12-04T07:41:37.373Z,2.65
2022-12-04T07:44:08.707Z,3.00
2022-12-04T07:46:36.918Z,3.10
2022-12-04T07:49:05.175Z,3.40
2022-12-04T07:51:33.348Z,3.22
2022-12-04T07:54:04.024Z,3.88
2022-12-04T07:56:33.639Z,3.58
2022-12-04T07:59:05.125Z,4.18
2022-12-04T08:01:33.597Z,3.78
2022-12-04T08:04:03.578Z,4.28
2022-12-04T08:06:34.417Z,4.55
2022-12-04T08:09:09.218Z,4.60
2022-12-04T08:11:38.744Z,4.20
2022-12-04T08:14:08.966Z,4.88
2022-12-04T08:16:37.336Z,5.22
2022-12-04T08:19:05.758Z,4.93
2022-12-04T08:21:34.289Z,5.30
2022-12-04T08:24:03.279Z,5.47
2022-12-04T08:26:33.823Z,5.47
2022-12-04T08:29:03.172Z,5.70
2022-12-04T08:31:33.336Z,6.38
2022-12-04T08:34:04.140Z,6.15
2022-12-04T08:36:33.278Z,6.53
2022-12-04T08:39:01.836Z,6.07
2022-12-04T08:41:30.350Z,6.60
2022-12-04T08:43:58.926Z,5.68
2022-12-04T08:46:28.646Z,4.47
2022-12-04T08:48:57.815Z,3.90
2022-12-04T08:51:31.036Z,4.68
2022-12-04T08:54:01.992Z,5.22
2022-12-04T08:56:32.246Z,4.85
2022-12-04T08:59:01.560Z,4.88
2022-12-04T09:01:30.699Z,4.88
2022-12-04T09:03:59.200Z,4.82
2022-12-04T09:06:27.386Z,5.07
2022-12-04T09:08:56.555Z,4.65
2022-12-04T09:11:26.805Z,4.40
2022-12-04T09:13:56.021Z,5.10
2022-12-04T09:16:25.749Z,4.63
2022-12-04T09:18:54.780Z,4.88
2022-12-04T09:21:24.782Z,4.53
2022-12-04T09:23:54.096Z,5.05
2022-12-04T09:26:25.385Z,5.43
2022-12-04T09:28:54.937Z,5.65
2022-12-04T09:31:24.552Z,5.20
2022-12-04T09:33:54.474Z,5.10
2022-12-04T09:36:23.058Z,4.60
2022-12-04T09:38:53.149Z,5.38
2022-12-04T09:41:39.584Z,5.10
2022-12-04T09:44:20.573Z,5.47
2022-12-04T09:46:58.225Z,5.07
2022-12-04T09:49:43.883Z,5.57
2022-12-04T09:52:35.828Z,5.20
2022-12-04T09:55:12.324Z,5.90
2022-12-04T09:57:46.747Z,5.53
2022-12-04T10:00:17.876Z,5.75
2022-12-04T10:03:03.791Z,5.35
2022-12-04T10:05:46.267Z,6.50
2022-12-04T10:08:31.856Z,5.13
2022-12-04T10:11:21.198Z,5.65
2022-12-04T10:14:22.955Z,4.95
2022-12-04T10:17:09.890Z,5.10
2022-12-04T10:19:54.326Z,5.07
2022-12-04T10:22:56.726Z,5.80
2022-12-04T10:25:26.938Z,5.68
2022-12-04T10:28:02.657Z,4.93
2022-12-04T10:30:34.964Z,5.25
2022-12-04T10:33:30.366Z,5.10
2022-12-04T10:35:58.998Z,4.88
2022-12-04T10:38:56.463Z,4.95
2022-12-04T10:41:55.353Z,5.00
2022-12-04T10:44:23.818Z,5.30
2022-12-04T10:46:57.260Z,5.53
2022-12-04T10:49:32.333Z,5.80
2022-12-04T10:52:00.901Z,5.68
2022-12-04T10:54:45.133Z,5.82
2022-12-04T10:57:14.426Z,5.90
2022-12-04T10:59:55.105Z,5.38
2022-12-04T11:02:27.573Z,5.72
2022-12-04T11:05:08.013Z,6.03
2022-12-04T11:07:43.102Z,6.22
2022-12-04T11:10:39.997Z,6.22
2022-12-04T11:13:17.652Z,5.85
2022-12-04T11:15:48.462Z,5.63
2022-12-04T11:18:25.781Z,5.97
2022-12-04T11:21:15.470Z,6.13
2022-12-04T11:23:48.854Z,5.47
2022-12-04T11:26:29.146Z,5.72
2022-12-04T11:29:01.428Z,6.32
2022-12-04T11:31:31.371Z,5.35
2022-12-04T11:34:08.165Z,5.53
2022-12-04T11:36:41.918Z,7.93
2022-12-04T11:39:31.091Z,5.10
2022-12-04T11:42:16.931Z,5.18
2022-12-04T11:44:56.745Z,5.10
2022-12-04T11:47:30.884Z,4.70
2022-12-04T11:50:13.106Z,5.43
2022-12-04T11:52:46.816Z,5.25
2022-12-04T11:55:42.273Z,4.70
2022-12-04T11:58:31.907Z,5.30
2022-12-04T12:01:43.406Z,5.78
2022-12-04T12:04:30.539Z,7.28
2022-12-04T12:07:24.219Z,5.40
2022-12-04T12:10:08.924Z,5.75
2022-12-04T12:12:59.016Z,4.57
2022-12-04T12:15:56.403Z,5.90
2022-12-04T12:18:46.244Z,5.75
2022-12-04T12:21:17.576Z,5.90
2022-12-04T12:24:20.630Z,5.95
2022-12-04T12:27:26.264Z,5.85
2022-12-04T12:30:16.490Z,5.82
2022-12-04T12:33:23.512Z,6.22
2022-12-04T12:36:11.221Z,5.75
2022-12-04T12:39:01.361Z,5.05
2022-12-04T12:41:45.066Z,5.60
2022-12-04T12:46:59.347Z,4.32
2022-12-04T12:49:37.763Z,4.68
2022-12-04T12:52:17.334Z,3.85
2022-12-04T12:55:15.111Z,3.80
2022-12-04T12:57:47.528Z,4.38
2022-12-04T13:00:21.718Z,3.75
2022-12-04T13:03:05.033Z,3.60
2022-12-04T13:05:56.896Z,4.53
2022-12-04T13:08:49.306Z,4.90
2022-12-04T13:11:26.883Z,5.47
2022-12-04T13:14:00.485Z,5.07
2022-12-04T13:16:58.031Z,5.78
2022-12-04T13:19:32.659Z,5.57
2022-12-04T13:22:19.475Z,5.47
2022-12-04T13:25:12.376Z,5.47
2022-12-04T13:27:58.757Z,6.72
2022-12-04T13:30:29.944Z,7.03
2022-12-04T13:33:15.939Z,7.32
2022-12-04T13:36:09.175Z,6.30
2022-12-04T13:39:02.866Z,6.50
2022-12-04T13:41:35.581Z,6.15
2022-12-04T13:44:22.579Z,5.35
2022-12-04T13:47:03.750Z,5.63
2022-12-04T13:49:45.863Z,4.85
2022-12-04T13:52:37.462Z,5.00
2022-12-04T13:55:22.577Z,4.90
2022-12-04T13:58:14.007Z,5.75
2022-12-04T14:00:43.971Z,6.72
2022-12-04T14:03:29.550Z,7.15
2022-12-04T14:06:00.055Z,8.30
2022-12-04T14:08:35.234Z,7.75
2022-12-04T14:11:23.260Z,7.95
2022-12-04T14:14:02.311Z,8.40
2022-12-04T14:16:42.224Z,7.88
2022-12-04T14:19:31.085Z,7.40
2022-12-04T14:22:00.057Z,7.55
2022-12-04T14:24:40.594Z,7.88
2022-12-04T14:27:42.868Z,7.95
2022-12-04T14:30:37.855Z,7.97
2022-12-04T14:33:31.875Z,8.00
2022-12-04T14:38:32.349Z,8.15
2022-12-04T14:41:01.796Z,9.30
2022-12-04T14:43:39.461Z,9.05
2022-12-04T14:46:29.082Z,9.55
2022-12-04T14:49:19.061Z,10.95
2022-12-04T14:51:52.771Z,9.32
2022-12-04T14:54:27.195Z,10.65
2022-12-04T14:57:24.261Z,12.82
2022-12-04T14:59:54.759Z,10.85
2022-12-04T15:02:25.407Z,10.63
2022-12-04T15:04:54.548Z,10.85
2022-12-04T15:07:29.515Z,10.90
2022-12-04T15:10:19.819Z,10.07
2022-12-04T15:12:54.822Z,8.88
2022-12-04T15:15:26.774Z,9.48
2022-12-04T15:18:20.205Z,9.68
2022-12-04T15:20:51.454Z,9.88
2022-12-04T15:23:40.418Z,9.73
2022-12-04T15:26:13.195Z,10.55
2022-12-04T15:28:43.386Z,11.02
2022-12-04T15:31:23.592Z,10.45
2022-12-04T15:33:57.039Z,9.27
2022-12-04T15:38:56.626Z,9.93
2022-12-04T15:41:36.671Z,9.50
2022-12-04T15:44:33.426Z,10.00
2022-12-04T15:47:15.055Z,13.18
2022-12-04T15:49:43.291Z,12.93
2022-12-04T15:52:16.802Z,14.07
2022-12-04T15:54:59.213Z,13.40
2022-12-04T15:57:36.841Z,16.25
2022-12-04T16:00:23.798Z,15.65
2022-12-04T16:02:59.180Z,15.75
2022-12-04T16:05:36.948Z,14.93
2022-12-04T16:08:25.180Z,14.23
2022-12-04T16:11:03.502Z,14.13
2022-12-04T16:13:39.016Z,15.00
2022-12-04T16:16:12.572Z,16.65
2022-12-04T16:18:43.259Z,17.05
2022-12-04T16:21:24.910Z,16.05
2022-12-04T16:23:53.048Z,15.15
2022-12-04T16:26:21.357Z,13.00
2022-12-04T16:28:49.541Z,13.55
2022-12-04T16:31:23.140Z,14.18
2022-12-04T16:33:52.653Z,14.68
2022-12-04T16:36:20.894Z,14.90
2022-12-04T16:38:50.377Z,17.08
2022-12-04T16:41:20.444Z,16.33
2022-12-04T16:43:58.133Z,17.13
2022-12-04T16:46:30.724Z,18.30
2022-12-04T16:49:04.305Z,20.00
2022-12-04T16:51:37.602Z,18.10
2022-12-04T16:54:06.949Z,17.40
2022-12-04T16:56:35.191Z,19.45
2022-12-04T16:59:05.565Z,18.05
2022-12-04T17:01:41.535Z,18.80
2022-12-04T17:04:10.434Z,18.83
2022-12-04T17:06:38.763Z,18.73
2022-12-04T17:09:07.018Z,18.13
2022-12-04T17:11:35.358Z,19.45
2022-12-04T17:14:07.259Z,17.08
2022-12-04T17:16:37.268Z,15.70
2022-12-04T17:19:05.875Z,15.13
2022-12-04T17:21:34.383Z,16.27
2022-12-04T17:24:02.855Z,18.58
2022-12-04T17:26:31.045Z,16.58
2022-12-04T17:28:59.220Z,17.25
2022-12-04T17:31:28.136Z,16.65
2022-12-04T17:33:57.409Z,16.88
2022-12-04T17:36:27.730Z,17.05
2022-12-04T17:38:57.854Z,17.00
2022-12-04T17:41:26.149Z,17.20
2022-12-04T17:43:54.601Z,15.45
2022-12-04T17:46:24.626Z,15.32
2022-12-04T17:48:56.721Z,15.90
2022-12-04T17:51:25.949Z,15.82
2022-12-04T17:53:54.672Z,14.95
2022-12-04T17:56:24.625Z,14.57
2022-12-04T17:58:53.521Z,15.27
2022-12-04T18:01:24.161Z,16.13
2022-12-04T18:04:01.980Z,14.50
2022-12-04T18:06:39.245Z,15.65
2022-12-04T18:09:10.961Z,14.73
2022-12-04T18:11:41.897Z,14.60
2022-12-04T18:14:15.993Z,16.10
2022-12-04T18:16:53.339Z,16.63
2022-12-04T18:19:24.275Z,17.02
2022-12-04T18:21:55.836Z,17.00
2022-12-04T18:24:25.279Z,16.80
2022-12-04T18:26:55.088Z,16.80
2022-12-04T18:29:26.673Z,16.42
2022-12-04T18:31:55.512Z,15.75
2022-12-04T18:34:24.417Z,15.82
2022-12-04T18:36:52.803Z,16.15
2022-12-04T18:39:28.358Z,16.70
2022-12-04T18:41:57.091Z,22.73
2022-12-04T18:44:28.353Z,27.10
2022-12-04T18:46:57.779Z,28.77
2022-12-04T18:49:25.951Z,28.73
2022-12-04T18:51:54.122Z,28.02
2022-12-04T18:54:23.909Z,27.02
2022-12-04T18:56:52.537Z,25.67
2022-12-04T18:59:26.084Z,22.85
2022-12-04T19:01:54.671Z,24.55
2022-12-04T19:04:24.669Z,23.67
2022-12-04T19:06:55.739Z,23.67
2022-12-04T19:10:10.020Z,28.55
2022-12-04T19:12:14.918Z,27.48
2022-12-04T19:14:43.050Z,28.05
2022-12-04T19:17:13.390Z,29.38
2022-12-04T19:19:43.531Z,27.48
2022-12-04T19:22:11.716Z,28.42
2022-12-04T19:24:39.918Z,28.13
2022-12-04T19:27:14.144Z,27.33
2022-12-04T19:29:43.542Z,27.52
2022-12-04T19:32:12.438Z,25.02
2022-12-04T19:34:43.625Z,25.02
2022-12-04T19:37:11.853Z,25.98
2022-12-04T19:39:40.159Z,22.92
2022-12-04T19:42:11.538Z,23.70
2022-12-04T19:44:48.901Z,23.35
2022-12-04T19:47:18.556Z,23.92
2022-12-04T19:49:47.008Z,22.88
2022-12-04T19:52:15.549Z,23.38
2022-12-04T19:54:43.694Z,22.92
2022-12-04T19:57:12.897Z,24.00
2022-12-04T19:59:46.233Z,24.38
2022-12-04T20:02:15.611Z,24.13
2022-12-04T20:04:44.028Z,24.08
2022-12-04T20:07:12.498Z,23.00
2022-12-04T20:09:40.709Z,24.38
2022-12-04T20:12:08.942Z,24.60
2022-12-04T20:14:37.153Z,23.42
2022-12-04T20:17:05.437Z,23.23
2022-12-04T20:19:33.740Z,24.25
2022-12-04T20:22:02.013Z,24.00
2022-12-04T20:24:32.821Z,25.63
2022-12-04T20:27:03.034Z,24.65
2022-12-04T20:29:31.245Z,24.50
2022-12-04T20:31:59.513Z,23.48
2022-12-04T20:34:27.672Z,22.75
2022-12-04T20:36:55.962Z,24.17
2022-12-04T20:39:24.207Z,24.58
2022-12-04T20:41:52.419Z,25.95
2022-12-04T20:44:20.940Z,26.52
2022-12-04T20:46:49.954Z,25.58
2022-12-04T20:49:22.089Z,24.17
2022-12-04T20:51:51.943Z,26.43
2022-12-04T20:54:22.284Z,26.17
2022-12-04T20:56:52.918Z,25.80
2022-12-04T20:59:23.324Z,25.10
2022-12-04T21:01:52.153Z,25.48
2022-12-04T21:04:21.395Z,28.02
2022-12-04T21:06:50.101Z,26.17
2022-12-04T21:09:23.694Z,27.63
2022-12-04T21:11:54.743Z,28.67
2022-12-04T21:14:50.406Z,26.15
2022-12-04T21:17:19.740Z,27.58
2022-12-04T21:19:50.483Z,27.73
2022-12-04T21:22:21.360Z,28.73
2022-12-04T21:24:50.858Z,29.27
2022-12-04T21:27:21.147Z,27.77
2022-12-04T21:29:50.325Z,29.40
2022-12-04T21:32:19.482Z,30.15
2022-12-04T21:34:48.072Z,30.48
2022-12-04T21:37:16.249Z,28.08
2022-12-04T21:39:44.482Z,27.92
2022-12-04T21:42:30.902Z,26.13
2022-12-04T21:45:04.432Z,25.33
2022-12-04T21:47:34.602Z,25.83
2022-12-04T21:50:02.785Z,24.20
2022-12-04T21:52:31.413Z,24.27
2022-12-04T21:54:59.644Z,24.23
2022-12-04T21:57:29.068Z,24.50
2022-12-04T21:59:57.593Z,26.38
2022-12-04T22:02:26.156Z,25.48
2022-12-04T22:04:54.514Z,24.75
2022-12-04T22:07:22.782Z,23.75
2022-12-04T22:09:50.950Z,25.63
2022-12-04T22:12:47.994Z,25.70
2022-12-04T22:15:07.954Z,26.10
2022-12-04T22:17:36.190Z,26.00
2022-12-04T22:20:05.400Z,24.48
2022-12-04T22:22:35.284Z,24.95
2022-12-04T22:25:03.489Z,24.73
2022-12-04T22:27:31.679Z,26.15
2022-12-04T22:30:00.053Z,26.13
2022-12-04T22:32:28.261Z,25.33
2022-12-04T22:34:56.400Z,24.10
2022-12-04T22:37:25.139Z,26.75
2022-12-04T22:39:56.609Z,24.50
2022-12-04T22:42:24.966Z,25.63
2022-12-04T22:44:53.158Z,25.27
2022-12-04T22:47:21.328Z,23.60
2022-12-04T22:49:49.449Z,24.70
2022-12-04T22:52:19.188Z,24.25
2022-12-04T22:54:49.676Z,25.30
2022-12-04T22:57:18.568Z,25.08
2022-12-04T22:59:47.630Z,26.08
2022-12-04T23:02:16.141Z,25.98
2022-12-04T23:04:44.638Z,25.27
2022-12-04T23:07:14.026Z,28.25
2022-12-04T23:09:42.243Z,26.30
2022-12-04T23:12:10.434Z,24.65
2022-12-04T23:14:40.907Z,27.23
2022-12-04T23:17:09.275Z,27.42
2022-12-04T23:19:38.027Z,25.02
2022-12-04T23:22:06.167Z,27.10
2022-12-04T23:24:38.007Z,25.50
2022-12-04T23:27:09.070Z,25.42
2022-12-04T23:30:05.119Z,24.80
2022-12-04T23:32:25.534Z,25.00
2022-12-04T23:34:53.688Z,25.77
2022-12-04T23:37:21.907Z,25.30
2022-12-04T23:39:50.142Z,24.52
2022-12-04T23:42:18.329Z,27.38
2022-12-04T23:44:46.526Z,27.48
2022-12-04T23:47:14.779Z,27.17
2022-12-04T23:49:43.058Z,26.90
2022-12-04T23:52:11.227Z,27.48
2022-12-04T23:54:39.380Z,26.23
2022-12-04T23:57:07.745Z,24.65
2022-12-04T23:59:35.950Z,26.15
